Time;durP1;ratioP1;P1;durP2;ratioP2;P2;SDS_P1;SDS_P2;PMS_P1;PMS_P2;Temp;Humidity;BMP_temperature;BMP_pressure;BME280_temperature;BME280_humidity;BME280_pressure;Samples;Min_cycle;Max_cycle;Signal;HPM_P1;HPM_P2
2023/02/16 00:02:18;;;;;;;35.50;18.08;;;;;;;2.09;70.72;101271.09;10176136;29;20053;-78
2023/02/16 00:07:20;;;;;;;39.08;19.33;;;;;;;2.03;71.00;101271.25;10202593;29;20039;-78
2023/02/16 00:17:45;;;;;;;40.00;17.97;;;;;;;2.23;70.76;101268.00;10160320;29;20040;-78
2023/02/16 00:22:48;;;;;;;36.45;17.10;;;;;;;2.24;70.42;101261.75;10163343;29;20067;-79
2023/02/16 00:27:52;;;;;;;35.80;16.75;;;;;;;2.32;70.41;101254.44;10164207;29;20052;-79
2023/02/16 00:32:55;;;;;;;38.15;19.15;;;;;;;2.46;70.20;101246.00;10169308;29;20102;-78
2023/02/16 00:37:57;;;;;;;40.03;20.33;;;;;;;2.55;69.68;101249.28;10184282;29;20055;-78
2023/02/16 00:43:01;;;;;;;38.15;19.35;;;;;;;2.56;69.55;101234.22;10162493;29;20084;-79
2023/02/16 00:48:05;;;;;;;35.55;18.50;;;;;;;2.52;69.23;101232.53;10163078;29;20048;-79
2023/02/16 00:53:07;;;;;;;38.22;17.45;;;;;;;2.31;69.77;101240.31;10159922;29;20104;-78
2023/02/16 00:58:21;;;;;;;36.13;19.70;;;;;;;2.33;69.85;101235.81;10161916;29;20143;-79
2023/02/16 01:03:27;;;;;;;39.50;20.27;;;;;;;2.34;69.88;101232.25;10162410;29;20078;-79
2023/02/16 01:13:53;;;;;;;41.03;19.38;;;;;;;2.11;70.03;101229.47;10171646;29;20044;-78
2023/02/16 01:18:55;;;;;;;43.15;19.45;;;;;;;2.13;70.23;101227.66;10178658;29;20261;-77
2023/02/16 01:23:59;;;;;;;43.90;20.40;;;;;;;2.23;70.45;101226.44;10182077;29;20040;-78
2023/02/16 01:29:03;;;;;;;42.40;20.02;;;;;;;2.28;70.42;101215.69;10177216;29;20052;-79
2023/02/16 01:34:06;;;;;;;39.75;20.65;;;;;;;2.43;70.33;101209.00;10171747;29;20099;-78
2023/02/16 01:39:12;;;;;;;41.97;20.65;;;;;;;2.44;69.84;101208.06;10172582;29;20146;-79
2023/02/16 01:44:20;;;;;;;39.47;20.42;;;;;;;2.49;70.28;101225.53;10165873;29;20389;-77
2023/02/16 01:49:23;;;;;;;43.17;22.42;;;;;;;3.04;70.94;101212.16;10170071;29;20147;-76
2023/02/16 01:54:35;;;;;;;43.15;22.42;;;;;;;3.42;69.92;101217.84;10131235;29;20412;-76
2023/02/16 02:00:03;;;;;;;47.17;21.95;;;;;;;3.19;68.79;101216.91;10131157;29;20543;-77
2023/02/16 02:05:36;;;;;;;42.58;21.17;;;;;;;2.66;68.24;101214.41;10166262;29;20048;-77
2023/02/16 02:10:51;;;;;;;44.67;21.77;;;;;;;2.33;68.72;101205.75;10093595;29;20055;-77
2023/02/16 02:15:58;;;;;;;48.30;24.50;;;;;;;2.81;71.38;101200.59;10092510;29;20051;-77
2023/02/16 02:27:10;;;;;;;45.40;23.58;;;;;;;3.47;68.95;101200.78;10118084;29;20044;-77
2023/02/16 02:32:22;;;;;;;45.85;24.15;;;;;;;3.42;68.73;101196.59;10182756;29;20078;-77
2023/02/16 02:37:36;;;;;;;45.38;23.70;;;;;;;3.52;68.61;101183.84;10178804;29;20049;-77
2023/02/16 02:42:47;;;;;;;46.75;24.35;;;;;;;3.55;68.23;101181.91;10181995;29;20090;-76
2023/02/16 03:05:21;;;;;;;48.92;24.27;;;;;;;3.10;69.49;101174.78;10151372;29;20076;-77
2023/02/16 03:15:54;;;;;;;47.35;23.85;;;;;;;3.67;67.79;101180.56;10183090;29;20044;-77
2023/02/16 03:31:41;;;;;;;42.55;21.17;;;;;;;3.56;67.54;101182.78;10180984;29;20444;-77
2023/02/16 03:36:47;;;;;;;47.80;23.90;;;;;;;3.57;67.71;101176.56;10183083;29;20500;-77
2023/02/16 03:41:51;;;;;;;50.38;25.20;;;;;;;3.63;67.76;101178.97;10175936;29;20044;-77
2023/02/16 03:46:56;;;;;;;51.40;25.50;;;;;;;3.69;67.82;101179.56;10138694;29;20147;-77
2023/02/16 03:51:58;;;;;;;45.50;23.42;;;;;;;3.37;66.71;101187.91;10137948;29;20530;-78
2023/02/16 03:57:01;;;;;;;44.50;22.17;;;;;;;2.57;67.49;101193.50;10165814;29;20415;-76
2023/02/16 04:02:05;;;;;;;46.78;23.55;;;;;;;2.02;69.29;101192.66;10175049;29;20131;-78
2023/02/16 04:07:08;;;;;;;54.38;24.00;;;;;;;1.90;69.86;101181.56;10213285;23;20054;-81
2023/02/16 04:17:34;;;;;;;48.20;23.57;;;;;;;1.78;70.40;101162.53;10210351;29;20059;-78
2023/02/16 04:22:37;;;;;;;54.38;26.67;;;;;;;1.69;71.17;101159.25;10193016;29;20059;-80
2023/02/16 04:27:41;;;;;;;56.47;28.17;;;;;;;1.62;71.51;101167.44;10215183;29;20076;-81
2023/02/16 04:32:46;;;;;;;55.40;26.60;;;;;;;1.72;71.02;101168.88;10182718;29;20072;-84
2023/02/16 04:37:49;;;;;;;56.13;25.90;;;;;;;1.64;71.05;101170.91;10158223;29;20512;-84
2023/02/16 04:42:52;;;;;;;58.90;27.08;;;;;;;1.70;71.46;101174.25;10157485;29;20071;-84
2023/02/16 04:47:56;;;;;;;55.13;25.25;;;;;;;1.72;71.39;101163.59;10176917;29;20048;-83
2023/02/16 04:52:59;;;;;;;49.38;22.65;;;;;;;1.75;71.33;101165.28;10160465;29;20056;-84
2023/02/16 04:58:02;;;;;;;50.13;22.02;;;;;;;1.71;71.09;101162.72;10169904;29;20051;-83
2023/02/16 05:03:06;;;;;;;57.28;25.25;;;;;;;1.84;71.29;101159.69;10154973;29;20049;-83
2023/02/16 05:08:08;;;;;;;53.67;26.67;;;;;;;2.01;71.16;101162.66;10212311;29;20511;-84
2023/02/16 05:18:48;;;;;;;57.95;27.05;;;;;;;2.30;70.55;101163.44;10147610;29;20045;-82
2023/02/16 05:23:50;;;;;;;54.45;26.27;;;;;;;2.39;70.23;101156.06;10174109;29;20103;-83
2023/02/16 05:28:53;;;;;;;55.70;26.05;;;;;;;2.21;70.38;101156.69;10177331;29;20051;-83
2023/02/16 05:33:57;;;;;;;58.20;27.70;;;;;;;2.19;70.58;101155.84;10167003;29;20040;-80
2023/02/16 05:39:00;;;;;;;55.80;26.30;;;;;;;2.19;70.57;101155.84;10172997;29;20044;-83
2023/02/16 05:44:04;;;;;;;53.08;24.95;;;;;;;2.29;70.66;101145.81;10149723;29;20405;-83
2023/02/16 05:49:10;;;;;;;53.95;26.67;;;;;;;2.39;70.15;101145.44;10187245;29;20445;-82
2023/02/16 05:54:16;;;;;;;56.42;27.35;;;;;;;2.35;69.80;101164.16;10174508;29;20131;-83
2023/02/16 05:59:20;;;;;;;59.40;27.65;;;;;;;2.14;70.02;101168.44;10165343;29;20048;-80
2023/02/16 06:04:24;;;;;;;56.97;26.35;;;;;;;1.72;69.89;101172.41;10193845;29;20068;-78
2023/02/16 06:09:27;;;;;;;53.83;25.23;;;;;;;1.48;70.27;101171.41;10183001;29;20056;-82
2023/02/16 06:14:30;;;;;;;58.88;28.25;;;;;;;1.27;71.30;101167.63;10171196;29;20060;-83
2023/02/16 06:19:34;;;;;;;54.88;25.23;;;;;;;1.20;71.69;101178.44;10156510;29;20036;-81
2023/02/16 06:24:37;;;;;;;58.63;25.77;;;;;;;1.27;71.95;101172.91;10167901;29;20044;-81
2023/02/16 06:29:40;;;;;;;54.30;23.15;;;;;;;1.43;71.95;101169.81;10174087;29;20059;-82
2023/02/16 06:34:44;;;;;;;48.50;24.38;;;;;;;1.53;71.45;101183.63;10161721;29;20047;-84
2023/02/16 06:39:47;;;;;;;50.47;25.10;;;;;;;1.58;71.24;101171.97;10159995;29;20055;-83
2023/02/16 06:44:50;;;;;;;51.15;26.55;;;;;;;1.68;70.82;101169.91;10164767;29;20048;-82
2023/02/16 06:49:54;;;;;;;54.28;25.02;;;;;;;1.77;70.48;101184.66;10165005;29;20052;-84
2023/02/16 06:54:57;;;;;;;52.53;23.75;;;;;;;1.71;70.18;101186.56;10159660;29;20131;-81
2023/02/16 07:00:00;;;;;;;52.65;23.58;;;;;;;1.80;70.29;101185.41;10170844;29;20063;-84
2023/02/16 07:05:04;;;;;;;52.45;23.92;;;;;;;2.09;70.16;101187.13;10165310;29;20044;-83
2023/02/16 07:10:13;;;;;;;51.20;25.58;;;;;;;2.47;69.03;101184.97;10165981;29;20425;-82
2023/02/16 07:15:16;;;;;;;50.15;24.10;;;;;;;2.41;68.36;101203.72;10193468;29;20040;-83
2023/02/16 07:20:20;;;;;;;45.80;23.88;;;;;;;2.59;68.45;101202.28;10191944;29;20044;-80
2023/02/16 07:25:25;;;;;;;46.60;24.17;;;;;;;2.83;67.22;101197.91;10188627;29;20456;-82
2023/02/16 07:30:27;;;;;;;55.10;24.25;;;;;;;3.05;66.76;101200.63;10185770;29;20044;-84
2023/02/16 07:35:32;;;;;;;45.60;22.00;;;;;;;3.66;65.61;101203.59;10190605;29;20043;-83
2023/02/16 07:40:35;;;;;;;44.88;22.45;;;;;;;4.11;64.09;101207.13;10194245;29;20048;-83
2023/02/16 07:45:38;;;;;;;46.60;23.17;;;;;;;4.29;62.64;101186.91;10174854;29;20047;-84
2023/02/16 07:50:42;;;;;;;39.92;21.02;;;;;;;4.30;62.71;101177.97;10179404;29;20044;-83
2023/02/16 07:55:46;;;;;;;40.65;21.80;;;;;;;4.31;62.45;101174.41;10147162;29;20039;-81
2023/02/16 08:00:49;;;;;;;43.40;23.58;;;;;;;4.59;61.90;101166.09;10169730;29;20129;-82
2023/02/16 08:05:53;;;;;;;39.20;19.83;;;;;;;4.78;61.28;101174.16;10163927;29;20040;-79
2023/02/16 08:10:56;;;;;;;37.60;20.55;;;;;;;4.80;61.59;101191.78;10132400;29;20059;-79
2023/02/16 08:16:00;;;;;;;39.53;21.60;;;;;;;4.34;62.26;101193.75;10119951;29;20044;-82
2023/02/16 08:21:12;;;;;;;35.85;20.38;;;;;;;4.15;63.52;101195.47;10122883;29;20054;-79
2023/02/16 08:26:17;;;;;;;47.15;23.10;;;;;;;3.91;64.47;101178.72;10121569;29;20063;-80
2023/02/16 08:31:23;;;;;;;47.55;23.20;;;;;;;4.07;64.97;101187.78;10116666;29;20128;-80
2023/02/16 08:36:31;;;;;;;47.40;21.30;;;;;;;4.32;64.51;101179.66;10115639;29;20056;-82
2023/02/16 08:41:36;;;;;;;41.50;22.08;;;;;;;4.35;64.35;101179.53;10120490;29;20060;-81
2023/02/16 08:46:41;;;;;;;44.72;21.88;;;;;;;4.48;64.20;101179.88;10120301;29;20161;-84
2023/02/16 08:51:47;;;;;;;42.50;21.35;;;;;;;4.44;64.31;101183.56;10144356;29;20048;-83
2023/02/16 08:56:50;;;;;;;38.50;22.40;;;;;;;4.50;64.43;101166.47;10170122;29;20071;-79
2023/02/16 09:01:53;;;;;;;41.80;21.63;;;;;;;4.46;63.87;101183.53;10155690;29;20053;-80
2023/02/16 09:06:58;;;;;;;44.92;22.27;;;;;;;4.28;64.43;101179.84;10129228;29;20053;-83
2023/02/16 09:12:01;;;;;;;41.80;21.20;;;;;;;4.34;64.37;101177.81;10112890;29;20052;-83
2023/02/16 09:17:04;;;;;;;36.72;21.20;;;;;;;4.52;64.47;101173.47;10121991;29;20108;-80
2023/02/16 09:22:09;;;;;;;38.88;20.40;;;;;;;5.04;63.68;101165.88;10113855;29;20080;-83
2023/02/16 09:27:12;;;;;;;40.63;20.38;;;;;;;5.48;62.50;101165.59;10148244;29;21085;-81
2023/02/16 09:32:16;;;;;;;39.50;21.15;;;;;;;5.63;62.27;101171.16;10129408;29;20080;-78
2023/02/16 09:37:20;;;;;;;39.90;22.13;;;;;;;5.73;62.00;101185.75;10147774;29;20053;-81
2023/02/16 09:42:33;;;;;;;41.03;22.35;;;;;;;5.80;62.23;101195.19;10138174;29;20123;-82
2023/02/16 09:47:39;;;;;;;37.67;21.30;;;;;;;6.42;61.61;101181.47;10122510;29;20053;-82
2023/02/16 09:52:50;;;;;;;40.45;21.45;;;;;;;7.37;59.77;101187.16;10143379;29;20066;-80
2023/02/16 09:58:03;;;;;;;44.30;23.57;;;;;;;8.11;55.83;101179.38;10126604;29;20076;-82
2023/02/16 10:03:22;;;;;;;43.03;20.90;;;;;;;8.49;53.80;101184.34;10116255;29;20176;-81
2023/02/16 10:08:31;;;;;;;39.95;22.75;;;;;;;8.54;53.26;101171.53;10126252;29;20130;-80
2023/02/16 10:13:42;;;;;;;40.65;21.40;;;;;;;8.69;52.88;101166.19;10112274;29;20740;-82
2023/02/16 10:18:51;;;;;;;38.17;21.52;;;;;;;9.17;52.08;101169.50;10128454;29;20051;-80
2023/02/16 10:24:00;;;;;;;37.08;20.75;;;;;;;9.01;52.32;101177.63;10114581;29;20052;-83
2023/02/16 10:29:07;;;;;;;35.85;20.73;;;;;;;8.77;51.88;101177.31;10127849;29;20068;-81
2023/02/16 10:34:19;;;;;;;35.25;20.45;;;;;;;9.08;51.85;101167.38;10122247;29;20132;-83
2023/02/16 10:39:33;;;;;;;38.80;20.20;;;;;;;9.16;51.29;101173.13;10127113;29;20127;-82
2023/02/16 10:44:40;;;;;;;36.25;20.25;;;;;;;9.33;51.65;101170.25;10137287;29;20127;-82
2023/02/16 10:49:43;;;;;;;34.40;20.83;;;;;;;8.59;52.30;101169.44;10151499;29;20475;-83
2023/02/16 10:54:48;;;;;;;35.63;20.55;;;;;;;9.09;51.73;101180.69;10126675;29;21229;-83
2023/02/16 10:59:51;;;;;;;35.38;20.10;;;;;;;9.02;51.44;101172.19;10131169;29;20049;-81
2023/02/16 11:04:55;;;;;;;35.55;21.08;;;;;;;9.03;51.50;101171.22;10128118;29;20044;-82
2023/02/16 11:10:18;;;;;;;38.72;20.38;;;;;;;9.14;51.41;101167.88;10152090;29;20052;-79
2023/02/16 11:15:24;;;;;;;33.60;19.33;;;;;;;9.16;51.41;101151.66;10129531;29;21172;-81
2023/02/16 11:20:29;;;;;;;34.42;20.00;;;;;;;8.76;52.08;101151.50;10131584;29;20163;-81
2023/02/16 11:25:34;;;;;;;37.25;19.15;;;;;;;9.02;51.54;101137.34;10136581;29;20123;-83
2023/02/16 11:30:40;;;;;;;35.17;19.58;;;;;;;8.78;52.31;101152.25;10133526;29;20143;-79
2023/02/16 11:35:44;;;;;;;38.50;22.20;;;;;;;9.15;52.31;101137.41;10127582;29;20059;-80
2023/02/16 11:40:53;;;;;;;33.90;19.63;;;;;;;9.25;52.03;101146.59;10127209;29;20131;-81
2023/02/16 11:46:02;;;;;;;39.33;21.50;;;;;;;9.24;52.51;101131.50;10119805;29;20052;-81
2023/02/16 11:51:08;;;;;;;33.20;18.92;;;;;;;9.18;52.07;101134.53;10145651;29;20056;-82
2023/02/16 11:56:23;;;;;;;37.85;21.33;;;;;;;9.13;52.66;101143.81;10127690;29;20053;-80
2023/02/16 12:01:40;;;;;;;36.03;19.85;;;;;;;8.92;53.80;101133.50;10129593;29;20220;-80
2023/02/16 12:06:57;;;;;;;39.28;20.95;;;;;;;8.99;53.52;101132.16;10129530;29;20055;-79
2023/02/16 12:12:10;;;;;;;33.20;19.33;;;;;;;9.10;53.29;101138.66;10137194;29;20147;-82
2023/02/16 12:17:23;;;;;;;37.33;19.85;;;;;;;8.91;54.33;101130.91;10119800;29;20049;-81
2023/02/16 12:22:32;;;;;;;;;;;;;;;8.93;54.71;101119.16;10124010;29;20063;-81
2023/02/16 12:27:42;;;;;;;37.83;20.45;;;;;;;9.63;53.76;101112.91;10145161;29;19990;-82
2023/02/16 12:32:58;;;;;;;35.13;20.55;;;;;;;9.49;54.27;101106.63;10137265;29;20052;-83
2023/02/16 12:38:10;;;;;;;39.95;22.75;;;;;;;9.70;53.89;101100.81;10114130;29;20080;-79
2023/02/16 12:43:30;;;;;;;36.47;20.58;;;;;;;9.74;53.89;101096.97;10127051;29;20085;-81
2023/02/16 12:48:41;;;;;;;41.28;21.98;;;;;;;9.63;54.30;101091.47;10124200;29;20051;-80
2023/02/16 12:53:50;;;;;;;36.72;22.48;;;;;;;9.93;54.18;101084.09;10107281;29;20048;-79
2023/02/16 12:59:06;;;;;;;37.33;19.73;;;;;;;10.04;54.09;101078.00;10124855;29;20056;-81
2023/02/16 13:04:21;;;;;;;40.78;22.10;;;;;;;9.83;54.21;101082.94;10139138;29;20172;-82
2023/02/16 13:09:34;;;;;;;38.08;19.95;;;;;;;9.32;55.22;101077.34;10121879;29;20428;-78
2023/02/16 13:14:43;;;;;;;35.35;20.27;;;;;;;9.24;55.83;101082.34;10115864;29;20056;-80
2023/02/16 13:19:47;;;;;;;33.40;20.05;;;;;;;9.30;56.17;101071.25;10120395;29;20139;-80
2023/02/16 13:25:00;;;;;;;37.17;22.55;;;;;;;8.96;57.04;101060.00;10120521;29;21249;-80
2023/02/16 13:30:30;;;;;;;34.17;20.48;;;;;;;8.79;57.89;101039.63;10121798;29;20052;-80
2023/02/16 13:35:57;;;;;;;34.00;20.58;;;;;;;9.10;57.06;101036.81;10114543;29;20049;-80
2023/02/16 13:41:33;;;;;;;37.25;20.70;;;;;;;9.14;57.14;101019.59;10130087;29;20071;-80
2023/02/16 13:46:45;;;;;;;36.40;20.80;;;;;;;9.11;58.05;101007.25;10122967;29;20052;-79
2023/02/16 13:51:49;;;;;;;40.78;22.27;;;;;;;9.00;58.07;100997.22;10132199;29;20054;-80
2023/02/16 13:56:53;;;;;;;35.55;21.05;;;;;;;9.49;56.99;100987.78;10121850;29;20564;-81
2023/02/16 14:01:58;;;;;;;39.45;20.38;;;;;;;9.64;56.43;100984.03;10155231;29;20060;-80
2023/02/16 14:07:21;;;;;;;34.50;19.92;;;;;;;9.55;56.85;100975.78;10156321;29;20059;-82
2023/02/16 14:12:30;;;;;;;34.20;18.77;;;;;;;9.65;56.83;100984.91;10142969;29;20060;-81
2023/02/16 14:17:36;;;;;;;29.83;17.05;;;;;;;9.36;57.37;100974.31;10149339;29;20403;-82
2023/02/16 14:22:52;;;;;;;33.92;20.88;;;;;;;9.41;57.56;100974.88;10127521;29;20095;-82
2023/02/16 14:27:57;;;;;;;34.72;20.10;;;;;;;9.27;57.56;100969.56;10128228;29;20144;-81
2023/02/16 14:33:15;;;;;;;34.70;19.40;;;;;;;9.37;57.34;100977.84;10117436;29;20595;-81
2023/02/16 14:38:26;;;;;;;30.98;18.35;;;;;;;9.30;57.62;100993.50;10123418;29;20594;-83
2023/02/16 14:43:33;;;;;;;35.83;18.85;;;;;;;9.10;58.76;101016.22;10109350;29;20072;-79
2023/02/16 14:48:55;;;;;;;25.58;13.90;;;;;;;8.90;59.59;101001.44;10110302;29;20518;-82
2023/02/16 14:54:21;;;;;;;34.92;20.52;;;;;;;9.06;59.34;101004.84;10121423;29;20048;-79
2023/02/16 14:59:31;;;;;;;36.90;20.48;;;;;;;9.16;59.27;101006.94;10120432;29;20080;-81
2023/02/16 15:04:38;;;;;;;36.00;21.42;;;;;;;8.95;60.18;101007.38;10125736;29;20048;-79
2023/02/16 15:09:46;;;;;;;36.47;21.38;;;;;;;8.95;60.72;101002.00;10127690;29;20519;-80
2023/02/16 15:14:52;;;;;;;39.92;23.58;;;;;;;9.09;60.78;100993.06;10140620;29;20131;-80
2023/02/16 15:20:01;;;;;;;38.92;21.58;;;;;;;8.68;62.85;100993.06;10138719;29;20036;-83
2023/02/16 15:25:15;;;;;;;42.72;22.13;;;;;;;8.49;63.64;100994.22;10120514;29;20045;-79
2023/02/16 15:30:22;;;;;;;37.70;25.48;;;;;;;8.78;63.62;100975.47;10135569;29;20135;-82
2023/02/16 15:35:31;;;;;;;40.53;23.85;;;;;;;8.81;63.83;100980.63;10126226;29;20447;-82
2023/02/16 15:40:34;;;;;;;46.38;25.23;;;;;;;8.76;63.99;100980.03;10136884;29;20036;-83
2023/02/16 15:45:38;;;;;;;39.47;22.70;;;;;;;8.86;64.00;100980.28;10130929;29;20139;-79
2023/02/16 15:50:43;;;;;;;41.47;22.17;;;;;;;8.69;64.59;100966.16;10131956;29;20048;-80
2023/02/16 15:55:47;;;;;;;45.75;27.08;;;;;;;8.70;64.44;100981.28;10140353;29;20096;-82
2023/02/16 16:00:50;;;;;;;45.40;26.73;;;;;;;8.86;64.13;100973.16;10133820;29;20194;-82
2023/02/16 16:06:00;;;;;;;43.30;22.65;;;;;;;8.59;65.34;100973.09;10136328;29;20048;-79
2023/02/16 16:11:03;;;;;;;40.75;25.20;;;;;;;8.67;65.32;100964.56;10135342;29;20127;-79
2023/02/16 16:16:08;;;;;;;45.13;27.60;;;;;;;8.79;64.62;100969.97;10148341;29;21252;-80
2023/02/16 16:21:24;;;;;;;42.85;26.25;;;;;;;8.88;64.53;100973.03;10133480;29;20059;-80
2023/02/16 16:26:30;;;;;;;43.50;25.23;;;;;;;8.81;64.54;100972.56;10128904;29;20123;-82
2023/02/16 16:31:41;;;;;;;47.20;25.95;;;;;;;8.82;64.54;100967.09;10129194;29;20048;-83
2023/02/16 16:36:53;;;;;;;48.90;25.58;;;;;;;8.80;65.08;100970.84;10130780;29;20051;-82
2023/02/16 16:42:20;;;;;;;46.47;25.45;;;;;;;8.71;65.57;100983.00;10128505;29;20048;-79
2023/02/16 16:47:28;;;;;;;42.42;26.38;;;;;;;8.71;65.77;100977.66;10132591;29;20055;-81
2023/02/16 16:52:39;;;;;;;45.60;25.77;;;;;;;8.84;65.00;100967.88;10129917;29;20540;-81
2023/02/16 16:57:42;;;;;;;43.42;26.35;;;;;;;8.91;65.02;100970.16;10124269;29;20048;-79
2023/02/16 17:02:45;;;;;;;45.15;27.52;;;;;;;8.89;65.03;100964.06;10122177;29;20058;-81
2023/02/16 17:07:50;;;;;;;47.08;27.92;;;;;;;8.88;65.15;100968.53;10121724;29;20052;-79
2023/02/16 17:12:58;;;;;;;41.20;26.88;;;;;;;8.96;64.90;100947.44;10116131;29;20059;-81
2023/02/16 17:18:01;;;;;;;46.45;27.65;;;;;;;8.93;65.26;100949.47;10121423;29;20191;-81
2023/02/16 17:23:06;;;;;;;48.83;27.55;;;;;;;8.91;65.66;100932.63;10124690;29;20049;-81
2023/02/16 17:28:10;;;;;;;42.83;25.55;;;;;;;8.89;65.80;100927.41;10118067;29;20603;-83
2023/02/16 17:33:13;;;;;;;43.83;27.55;;;;;;;8.90;65.87;100914.84;10123385;29;20040;-81
2023/02/16 17:38:20;;;;;;;42.53;26.80;;;;;;;8.86;66.24;100910.63;10135094;29;20052;-81
2023/02/16 17:43:25;;;;;;;42.95;26.25;;;;;;;8.94;65.93;100906.53;10119654;29;20127;-81
2023/02/16 17:48:29;;;;;;;48.15;25.17;;;;;;;8.95;65.97;100904.69;10128979;29;20095;-82
2023/02/16 17:53:34;;;;;;;46.10;26.95;;;;;;;8.96;65.87;100909.09;10107518;29;20139;-81
2023/02/16 17:58:37;;;;;;;53.08;26.27;;;;;;;8.94;66.00;100902.94;10105695;29;20151;-80
2023/02/16 18:03:39;;;;;;;40.42;21.15;;;;;;;8.76;66.22;100911.25;10110419;29;20064;-82
2023/02/16 18:08:44;;;;;;;42.67;25.02;;;;;;;8.88;66.40;100898.00;10111283;29;20056;-79
2023/02/16 18:13:47;;;;;;;41.50;24.60;;;;;;;8.95;65.87;100907.38;10100831;29;20101;-80
2023/02/16 18:18:50;;;;;;;43.03;26.98;;;;;;;8.96;65.90;100899.22;10113597;29;20048;-81
2023/02/16 18:23:54;;;;;;;42.78;25.58;;;;;;;9.06;65.54;100886.06;10128680;29;20108;-79
2023/02/16 18:28:57;;;;;;;45.97;25.80;;;;;;;8.98;65.77;100875.88;10133137;29;20071;-80
2023/02/16 18:34:00;;;;;;;41.15;24.38;;;;;;;9.09;65.34;100872.47;10131200;29;20159;-79
2023/02/16 18:39:05;;;;;;;47.42;26.63;;;;;;;9.08;65.51;100872.56;10116374;29;20428;-80
2023/02/16 18:44:08;;;;;;;42.88;25.80;;;;;;;8.85;66.19;100864.25;10109612;29;20060;-80
2023/02/16 18:49:11;;;;;;;45.80;25.38;;;;;;;8.99;65.88;100869.53;10125437;29;20154;-81
2023/02/16 18:54:15;;;;;;;40.80;24.33;;;;;;;8.82;66.37;100864.44;10109285;29;20500;-82
2023/02/16 18:59:18;;;;;;;45.38;25.95;;;;;;;8.96;65.79;100852.81;10112818;29;20164;-81
2023/02/16 19:04:21;;;;;;;39.38;23.55;;;;;;;9.13;64.72;100851.66;10115139;29;20471;-80
2023/02/16 19:09:25;;;;;;;39.13;23.05;;;;;;;8.94;64.91;100844.00;10116190;29;20076;-81
2023/02/16 19:14:28;;;;;;;37.40;22.20;;;;;;;9.05;64.53;100847.72;10127588;29;20055;-82
2023/02/16 19:19:31;;;;;;;34.42;20.60;;;;;;;9.12;64.08;100858.00;10119655;29;20053;-80
2023/02/16 19:24:36;;;;;;;35.00;21.10;;;;;;;9.26;63.69;100853.41;10131144;29;20052;-81
2023/02/16 19:29:40;;;;;;;31.13;19.42;;;;;;;8.91;64.48;100868.31;10107684;29;20059;-81
2023/02/16 19:34:42;;;;;;;35.80;16.92;;;;;;;8.81;65.48;100881.50;10124573;29;20108;-81
2023/02/16 19:39:47;;;;;;;33.83;21.65;;;;;;;8.50;67.43;100871.91;10125227;29;20048;-80
2023/02/16 19:44:50;;;;;;;24.35;14.38;;;;;;;8.04;73.22;100886.38;10105156;29;20056;-81
2023/02/16 19:49:52;;;;;;;37.05;20.70;;;;;;;7.72;76.70;100875.84;10122599;29;20052;-82
2023/02/16 19:54:57;;;;;;;41.83;24.52;;;;;;;7.83;78.04;100874.31;10118793;29;20054;-81
2023/02/16 20:00:02;;;;;;;45.90;24.63;;;;;;;7.58;80.26;100856.25;10120698;29;20148;-80
2023/02/16 20:05:13;;;;;;;43.42;25.38;;;;;;;7.65;81.02;100868.28;10112486;29;20056;-81
2023/02/16 20:10:17;;;;;;;47.22;23.55;;;;;;;7.39;83.15;100857.38;10120465;29;20055;-80
2023/02/16 20:15:20;;;;;;;51.53;27.20;;;;;;;7.20;84.94;100859.41;10124004;29;20040;-79
2023/02/16 20:20:23;;;;;;;45.25;27.33;;;;;;;7.34;84.97;100866.63;10128360;29;20060;-82
2023/02/16 20:25:27;;;;;;;47.28;25.98;;;;;;;7.34;85.25;100862.13;10116750;29;20056;-81
2023/02/16 20:30:30;;;;;;;45.40;25.63;;;;;;;7.32;84.75;100842.63;10124855;29;20508;-82
2023/02/16 20:35:33;;;;;;;43.60;26.08;;;;;;;7.29;85.84;100848.16;10120516;29;20057;-81
2023/02/16 20:40:37;;;;;;;33.97;19.75;;;;;;;7.04;86.99;100838.94;10143370;29;20056;-79
2023/02/16 20:45:41;;;;;;;44.38;25.80;;;;;;;7.35;86.56;100836.25;10131897;29;20068;-81
2023/02/16 20:50:44;;;;;;;40.25;23.02;;;;;;;7.34;86.25;100834.53;10133331;29;20123;-82
2023/02/16 20:55:49;;;;;;;43.95;24.08;;;;;;;7.32;87.21;100831.09;10124810;29;20044;-81
2023/02/16 21:00:52;;;;;;;32.33;17.65;;;;;;;7.03;88.12;100833.72;10129207;29;20104;-81
2023/02/16 21:05:55;;;;;;;38.15;23.33;;;;;;;7.33;87.36;100830.16;10136901;29;20052;-81
2023/02/16 21:11:00;;;;;;;38.13;22.00;;;;;;;7.23;87.52;100851.22;10118438;29;20063;-81
2023/02/16 21:16:03;;;;;;;41.55;20.42;;;;;;;7.18;87.58;100830.09;10103342;29;20795;-83
2023/02/16 21:21:07;;;;;;;44.25;26.40;;;;;;;7.19;88.50;100826.50;10109943;29;20045;-82
2023/02/16 21:26:12;;;;;;;40.50;24.10;;;;;;;7.36;87.86;100820.13;10121315;29;20064;-83
2023/02/16 21:31:17;;;;;;;39.78;19.85;;;;;;;7.12;88.58;100809.09;10122584;29;20056;-80
2023/02/16 21:36:22;;;;;;;35.67;21.45;;;;;;;7.07;89.13;100805.84;10141372;29;21168;-83
2023/02/16 21:41:28;;;;;;;35.95;20.45;;;;;;;6.96;89.97;100801.13;10157748;29;20094;-84
2023/02/16 21:46:33;;;;;;;31.60;17.30;;;;;;;6.92;90.44;100793.41;10135787;29;20048;-84
2023/02/16 21:51:38;;;;;;;43.38;26.02;;;;;;;6.89;92.39;100798.94;10124445;29;20075;-82
2023/02/16 21:56:44;;;;;;;44.85;24.95;;;;;;;6.97;90.80;100794.00;10131348;29;20117;-84
2023/02/16 22:01:49;;;;;;;43.65;23.35;;;;;;;7.04;90.65;100792.69;10109740;29;20139;-82
2023/02/16 22:06:53;;;;;;;41.85;22.85;;;;;;;6.93;90.70;100774.63;10160455;28;20051;-79
2023/02/16 22:11:58;;;;;;;48.10;28.15;;;;;;;6.83;91.74;100770.75;10125830;29;20433;-79
2023/02/16 22:17:03;;;;;;;48.17;26.75;;;;;;;7.22;89.68;100777.38;10124582;29;20649;-81
2023/02/16 22:22:06;;;;;;;48.30;26.85;;;;;;;7.04;90.33;100753.47;10125460;29;20048;-82
2023/02/16 22:27:10;;;;;;;43.88;25.77;;;;;;;7.01;91.29;100761.66;10122541;29;20162;-82
2023/02/16 22:32:13;;;;;;;39.97;22.08;;;;;;;6.89;91.13;100791.78;10127612;29;20131;-81
2023/02/16 22:37:16;;;;;;;43.38;25.65;;;;;;;6.87;91.70;100766.09;10123384;29;20669;-81
2023/02/16 22:42:20;;;;;;;50.67;25.23;;;;;;;7.04;90.72;100772.16;10120980;29;20060;-82
2023/02/16 22:47:25;;;;;;;27.00;15.75;;;;;;;6.89;91.35;100766.91;10120485;29;20052;-82
2023/02/16 22:52:28;;;;;;;46.78;27.67;;;;;;;7.17;90.33;100785.66;10193228;23;20044;-85
2023/02/16 22:57:37;;;;;;;50.88;31.42;;;;;;;7.18;90.69;100790.03;10181857;29;20044;-85
2023/02/16 23:02:39;;;;;;;48.75;27.38;;;;;;;6.94;91.48;100787.03;10188020;29;20344;-85
2023/02/16 23:07:42;;;;;;;50.63;31.23;;;;;;;7.02;93.35;100789.22;10165536;29;20076;-83
2023/02/16 23:12:47;;;;;;;44.08;26.80;;;;;;;7.13;91.65;100781.47;10189269;29;20048;-84
2023/02/16 23:17:49;;;;;;;43.30;22.77;;;;;;;7.19;91.17;100765.03;10188012;29;20419;-83
2023/02/16 23:22:52;;;;;;;50.28;30.55;;;;;;;7.17;92.48;100776.78;10161479;29;20045;-82
2023/02/16 23:27:56;;;;;;;51.33;29.65;;;;;;;6.97;92.77;100773.50;10158176;29;20397;-83
2023/02/16 23:32:59;;;;;;;55.42;32.20;;;;;;;7.18;92.75;100776.66;10149556;29;20476;-82
2023/02/16 23:38:03;;;;;;;53.63;32.05;;;;;;;7.23;92.55;100765.72;10145925;29;20534;-83
2023/02/16 23:43:07;;;;;;;50.67;29.48;;;;;;;7.04;94.11;100750.78;10169144;29;20048;-82
2023/02/16 23:48:10;;;;;;;50.55;30.92;;;;;;;7.19;93.35;100754.34;10174159;29;20044;-81
2023/02/16 23:53:13;;;;;;;56.67;36.13;;;;;;;7.21;94.34;100751.56;10151818;29;20043;-81
2023/02/16 23:58:17;;;;;;;46.00;25.10;;;;;;;7.03;95.48;100751.75;10177833;29;20397;-82
